sensor_id;sensor_type;location;lat;lon;timestamp;pressure;altitude;pressure_sealevel;temperature;humidity
50774;BME280;36745;48.544;8.918;2023-04-01T00:00:39;96070.53;;;8.27;95.02
50774;BME280;36745;48.544;8.918;2023-04-01T00:03:59;96079.50;;;8.19;95.29
50774;BME280;36745;48.544;8.918;2023-04-01T00:07:21;96074.97;;;8.25;95.05
50774;BME280;36745;48.544;8.918;2023-04-01T00:10:41;96084.72;;;8.26;95.79
50774;BME280;36745;48.544;8.918;2023-04-01T00:14:01;96075.56;;;8.20;95.43
50774;BME280;36745;48.544;8.918;2023-04-01T00:17:21;96068.25;;;8.26;95.67
50774;BME280;36745;48.544;8.918;2023-04-01T00:20:46;96063.81;;;8.28;94.75
50774;BME280;36745;48.544;8.918;2023-04-01T00:24:06;96069.47;;;8.25;95.15
50774;BME280;36745;48.544;8.918;2023-04-01T00:27:26;96054.22;;;8.24;95.15
50774;BME280;36745;48.544;8.918;2023-04-01T00:30:46;96067.00;;;8.18;95.38
50774;BME280;36745;48.544;8.918;2023-04-01T00:34:06;96075.25;;;8.18;95.46
50774;BME280;36745;48.544;8.918;2023-04-01T00:37:27;96070.97;;;8.17;95.36
50774;BME280;36745;48.544;8.918;2023-04-01T00:40:47;96063.81;;;8.19;96.08
50774;BME280;36745;48.544;8.918;2023-04-01T00:44:17;96060.13;;;8.13;95.85
50774;BME280;36745;48.544;8.918;2023-04-01T00:47:38;96059.38;;;8.13;96.13
50774;BME280;36745;48.544;8.918;2023-04-01T00:51:07;96056.91;;;8.06;96.16
50774;BME280;36745;48.544;8.918;2023-04-01T00:54:29;96065.78;;;8.10;95.81
50774;BME280;36745;48.544;8.918;2023-04-01T00:57:50;96060.91;;;8.14;95.70
50774;BME280;36745;48.544;8.918;2023-04-01T01:01:12;96070.97;;;8.17;96.20
50774;BME280;36745;48.544;8.918;2023-04-01T01:04:33;96076.31;;;8.20;95.81
50774;BME280;36745;48.544;8.918;2023-04-01T01:11:20;96064.41;;;8.23;95.89
50774;BME280;36745;48.544;8.918;2023-04-01T01:30:13;96074.47;;;8.08;94.50
50774;BME280;36745;48.544;8.918;2023-04-01T01:33:47;96074.28;;;7.93;95.87
50774;BME280;36745;48.544;8.918;2023-04-01T01:37:16;96073.34;;;7.96;95.07
50774;BME280;36745;48.544;8.918;2023-04-01T01:40:39;96076.69;;;7.91;94.74
50774;BME280;36745;48.544;8.918;2023-04-01T01:44:02;96076.22;;;7.84;94.63
50774;BME280;36745;48.544;8.918;2023-04-01T01:47:23;96080.94;;;7.83;94.35
50774;BME280;36745;48.544;8.918;2023-04-01T01:50:44;96081.25;;;7.85;94.74
50774;BME280;36745;48.544;8.918;2023-04-01T01:54:05;96075.44;;;7.83;94.71
50774;BME280;36745;48.544;8.918;2023-04-01T01:57:29;96073.50;;;7.93;94.68
50774;BME280;36745;48.544;8.918;2023-04-01T02:00:55;96064.78;;;7.85;94.52
50774;BME280;36745;48.544;8.918;2023-04-01T02:04:17;96071.19;;;7.82;95.11
50774;BME280;36745;48.544;8.918;2023-04-01T02:07:39;96080.94;;;7.83;95.17
50774;BME280;36745;48.544;8.918;2023-04-01T02:11:03;96094.97;;;7.85;94.66
50774;BME280;36745;48.544;8.918;2023-04-01T02:14:39;96086.41;;;7.83;94.56
50774;BME280;36745;48.544;8.918;2023-04-01T02:18:02;96067.50;;;7.76;94.64
50774;BME280;36745;48.544;8.918;2023-04-01T02:21:26;96074.66;;;7.83;94.84
50774;BME280;36745;48.544;8.918;2023-04-01T02:24:47;96080.31;;;7.79;94.82
50774;BME280;36745;48.544;8.918;2023-04-01T02:28:10;96083.38;;;7.81;94.60
50774;BME280;36745;48.544;8.918;2023-04-01T02:31:30;96073.59;;;7.71;94.50
50774;BME280;36745;48.544;8.918;2023-04-01T02:34:51;96074.03;;;7.70;95.37
50774;BME280;36745;48.544;8.918;2023-04-01T02:38:11;96079.97;;;7.68;94.63
50774;BME280;36745;48.544;8.918;2023-04-01T02:41:30;96083.91;;;7.67;94.75
50774;BME280;36745;48.544;8.918;2023-04-01T02:44:50;96077.19;;;7.59;94.22
50774;BME280;36745;48.544;8.918;2023-04-01T02:48:10;96060.97;;;7.43;95.22
50774;BME280;36745;48.544;8.918;2023-04-01T02:51:30;96062.94;;;7.42;95.21
50774;BME280;36745;48.544;8.918;2023-04-01T02:54:50;96063.72;;;7.43;94.83
50774;BME280;36745;48.544;8.918;2023-04-01T02:58:10;96059.75;;;7.44;94.04
50774;BME280;36745;48.544;8.918;2023-04-01T03:01:30;96057.09;;;7.31;94.06
50774;BME280;36745;48.544;8.918;2023-04-01T03:04:49;96070.63;;;7.26;94.35
50774;BME280;36745;48.544;8.918;2023-04-01T03:08:09;96069.56;;;7.23;95.07
50774;BME280;36745;48.544;8.918;2023-04-01T03:11:29;96082.19;;;7.30;94.95
50774;BME280;36745;48.544;8.918;2023-04-01T03:14:49;96081.31;;;7.33;94.53
50774;BME280;36745;48.544;8.918;2023-04-01T03:18:09;96081.75;;;7.31;94.45
50774;BME280;36745;48.544;8.918;2023-04-01T03:21:28;96077.81;;;7.32;94.12
50774;BME280;36745;48.544;8.918;2023-04-01T03:24:48;96071.13;;;7.33;94.16
50774;BME280;36745;48.544;8.918;2023-04-01T03:28:08;96080.69;;;7.29;93.99
50774;BME280;36745;48.544;8.918;2023-04-01T03:31:28;96079.69;;;7.13;94.06
50774;BME280;36745;48.544;8.918;2023-04-01T03:34:48;96074.84;;;7.18;94.26
50774;BME280;36745;48.544;8.918;2023-04-01T03:38:08;96073.44;;;7.13;94.00
50774;BME280;36745;48.544;8.918;2023-04-01T03:41:27;96070.75;;;7.22;93.60
50774;BME280;36745;48.544;8.918;2023-04-01T03:44:47;96077.59;;;7.18;93.29
50774;BME280;36745;48.544;8.918;2023-04-01T03:48:07;96075.09;;;7.10;93.34
50774;BME280;36745;48.544;8.918;2023-04-01T03:51:27;96065.78;;;7.08;93.88
50774;BME280;36745;48.544;8.918;2023-04-01T03:54:47;96064.72;;;7.05;93.93
50774;BME280;36745;48.544;8.918;2023-04-01T03:58:07;96064.13;;;7.10;94.31
50774;BME280;36745;48.544;8.918;2023-04-01T04:01:27;96055.91;;;7.10;94.76
50774;BME280;36745;48.544;8.918;2023-04-01T04:04:47;96042.69;;;7.18;94.31
50774;BME280;36745;48.544;8.918;2023-04-01T04:08:07;96039.47;;;7.10;94.92
50774;BME280;36745;48.544;8.918;2023-04-01T04:11:27;96046.78;;;7.13;95.17
50774;BME280;36745;48.544;8.918;2023-04-01T04:14:46;96036.78;;;7.20;94.51
50774;BME280;36745;48.544;8.918;2023-04-01T04:18:06;96041.44;;;7.10;95.47
50774;BME280;36745;48.544;8.918;2023-04-01T04:21:26;96041.72;;;7.03;95.67
50774;BME280;36745;48.544;8.918;2023-04-01T04:24:46;96042.97;;;7.11;95.84
50774;BME280;36745;48.544;8.918;2023-04-01T04:28:06;96045.41;;;7.09;95.97
50774;BME280;36745;48.544;8.918;2023-04-01T04:35:55;96051.25;;;7.20;96.06
50774;BME280;36745;48.544;8.918;2023-04-01T04:39:16;96045.19;;;7.25;95.89
50774;BME280;36745;48.544;8.918;2023-04-01T04:42:36;96044.31;;;7.28;95.77
50774;BME280;36745;48.544;8.918;2023-04-01T04:45:56;96042.03;;;7.36;95.98
50774;BME280;36745;48.544;8.918;2023-04-01T04:49:16;96046.94;;;7.41;95.20
50774;BME280;36745;48.544;8.918;2023-04-01T04:52:36;96049.06;;;7.37;95.39
50774;BME280;36745;48.544;8.918;2023-04-01T04:55:55;96051.34;;;7.38;95.48
50774;BME280;36745;48.544;8.918;2023-04-01T04:59:15;96057.28;;;7.37;94.88
50774;BME280;36745;48.544;8.918;2023-04-01T05:02:35;96053.00;;;7.36;95.32
50774;BME280;36745;48.544;8.918;2023-04-01T05:05:55;96055.03;;;7.44;95.13
50774;BME280;36745;48.544;8.918;2023-04-01T05:09:15;96057.97;;;7.50;94.97
50774;BME280;36745;48.544;8.918;2023-04-01T05:12:35;96053.94;;;7.42;94.47
50774;BME280;36745;48.544;8.918;2023-04-01T05:15:58;96042.66;;;7.40;94.25
50774;BME280;36745;48.544;8.918;2023-04-01T05:19:18;96038.59;;;7.44;94.79
50774;BME280;36745;48.544;8.918;2023-04-01T05:22:38;96041.19;;;7.48;93.86
50774;BME280;36745;48.544;8.918;2023-04-01T05:25:57;96041.81;;;7.52;93.55
50774;BME280;36745;48.544;8.918;2023-04-01T05:29:17;96032.69;;;7.55;93.02
50774;BME280;36745;48.544;8.918;2023-04-01T05:32:37;96045.31;;;7.52;93.68
50774;BME280;36745;48.544;8.918;2023-04-01T05:36:05;96039.84;;;7.62;93.48
50774;BME280;36745;48.544;8.918;2023-04-01T05:39:25;96033.31;;;7.59;93.04
50774;BME280;36745;48.544;8.918;2023-04-01T05:42:45;96036.38;;;7.61;93.40
50774;BME280;36745;48.544;8.918;2023-04-01T05:46:05;96031.78;;;7.58;93.00
50774;BME280;36745;48.544;8.918;2023-04-01T05:49:25;96033.94;;;7.63;92.76
50774;BME280;36745;48.544;8.918;2023-04-01T05:52:45;96033.03;;;7.66;92.62
50774;BME280;36745;48.544;8.918;2023-04-01T05:56:04;96024.81;;;7.66;92.40
50774;BME280;36745;48.544;8.918;2023-04-01T05:59:24;96030.31;;;7.75;92.00
50774;BME280;36745;48.544;8.918;2023-04-01T06:02:44;96030.47;;;7.72;91.11
50774;BME280;36745;48.544;8.918;2023-04-01T06:06:14;96018.56;;;7.75;91.55
50774;BME280;36745;48.544;8.918;2023-04-01T06:09:34;96019.34;;;7.75;91.92
50774;BME280;36745;48.544;8.918;2023-04-01T06:13:07;96013.25;;;7.71;91.21
50774;BME280;36745;48.544;8.918;2023-04-01T06:31:50;96014.22;;;8.05;91.38
50774;BME280;36745;48.544;8.918;2023-04-01T06:46:00;96002.03;;;8.15;91.21
50774;BME280;36745;48.544;8.918;2023-04-01T06:56:41;96003.56;;;8.16;91.08
50774;BME280;36745;48.544;8.918;2023-04-01T07:00:04;95999.31;;;8.24;90.86
50774;BME280;36745;48.544;8.918;2023-04-01T07:03:34;96006.94;;;8.29;91.57
50774;BME280;36745;48.544;8.918;2023-04-01T07:06:58;96007.56;;;8.33;91.90
50774;BME280;36745;48.544;8.918;2023-04-01T07:10:25;96013.06;;;8.51;91.41
50774;BME280;36745;48.544;8.918;2023-04-01T07:13:54;96007.56;;;8.51;91.42
50774;BME280;36745;48.544;8.918;2023-04-01T07:17:22;96021.47;;;8.57;91.61
50774;BME280;36745;48.544;8.918;2023-04-01T07:20:43;96018.38;;;8.64;91.41
50774;BME280;36745;48.544;8.918;2023-04-01T07:24:11;96024.97;;;8.66;92.07
50774;BME280;36745;48.544;8.918;2023-04-01T07:27:33;96023.13;;;8.72;91.12
50774;BME280;36745;48.544;8.918;2023-04-01T07:42:05;96031.34;;;8.81;91.10
50774;BME280;36745;48.544;8.918;2023-04-01T07:45:38;96040.50;;;8.88;91.11
50774;BME280;36745;48.544;8.918;2023-04-01T07:49:24;96030.59;;;8.81;90.83
50774;BME280;36745;48.544;8.918;2023-04-01T07:56:59;96040.69;;;8.84;90.55
50774;BME280;36745;48.544;8.918;2023-04-01T08:07:32;96044.47;;;8.96;90.71
50774;BME280;36745;48.544;8.918;2023-04-01T08:11:04;96053.94;;;8.85;91.78
50774;BME280;36745;48.544;8.918;2023-04-01T08:21:42;96058.06;;;8.90;92.06
50774;BME280;36745;48.544;8.918;2023-04-01T08:25:05;96063.09;;;8.82;91.39
50774;BME280;36745;48.544;8.918;2023-04-01T08:28:37;96058.53;;;8.79;92.85
50774;BME280;36745;48.544;8.918;2023-04-01T08:35:37;96060.38;;;8.82;92.96
50774;BME280;36745;48.544;8.918;2023-04-01T08:39:07;96071.97;;;8.87;92.95
50774;BME280;36745;48.544;8.918;2023-04-01T08:58:26;96058.84;;;8.91;93.97
50774;BME280;36745;48.544;8.918;2023-04-01T09:09:23;96084.78;;;9.17;94.36
50774;BME280;36745;48.544;8.918;2023-04-01T09:20:44;96085.53;;;9.17;93.82
50774;BME280;36745;48.544;8.918;2023-04-01T09:28:02;96083.84;;;9.20;95.09
50774;BME280;36745;48.544;8.918;2023-04-01T10:00:27;96104.59;;;9.30;94.73
50774;BME280;36745;48.544;8.918;2023-04-01T10:07:59;96103.72;;;9.06;95.06
50774;BME280;36745;48.544;8.918;2023-04-01T10:15:49;96103.09;;;9.11;95.83
50774;BME280;36745;48.544;8.918;2023-04-01T10:23:27;96104.28;;;9.19;96.60
50774;BME280;36745;48.544;8.918;2023-04-01T10:34:36;96112.88;;;9.03;95.13
50774;BME280;36745;48.544;8.918;2023-04-01T10:46:04;96115.59;;;9.39;96.02
50774;BME280;36745;48.544;8.918;2023-04-01T10:56:59;96113.91;;;9.33;94.08
50774;BME280;36745;48.544;8.918;2023-04-01T11:04:32;96114.66;;;9.42;94.69
50774;BME280;36745;48.544;8.918;2023-04-01T11:12:39;96108.84;;;9.40;93.79
50774;BME280;36745;48.544;8.918;2023-04-01T11:20:03;96116.75;;;9.56;95.26
50774;BME280;36745;48.544;8.918;2023-04-01T11:27:26;96129.25;;;9.76;94.53
50774;BME280;36745;48.544;8.918;2023-04-01T11:38:24;96134.53;;;9.97;92.46
50774;BME280;36745;48.544;8.918;2023-04-01T11:42:09;96142.25;;;9.75;91.27
50774;BME280;36745;48.544;8.918;2023-04-01T11:45:38;96144.06;;;9.78;91.00
50774;BME280;36745;48.544;8.918;2023-04-01T11:52:56;96147.13;;;9.80;92.09
50774;BME280;36745;48.544;8.918;2023-04-01T12:04:30;96156.59;;;9.79;92.34
50774;BME280;36745;48.544;8.918;2023-04-01T12:11:52;96152.13;;;9.91;92.05
50774;BME280;36745;48.544;8.918;2023-04-01T12:18:57;96161.22;;;10.15;91.66
50774;BME280;36745;48.544;8.918;2023-04-01T12:26:13;96164.28;;;10.17;91.44
50774;BME280;36745;48.544;8.918;2023-04-01T12:30:13;96159.00;;;10.37;92.52
50774;BME280;36745;48.544;8.918;2023-04-01T12:37:11;96168.16;;;10.43;90.52
50774;BME280;36745;48.544;8.918;2023-04-01T12:44:44;96172.56;;;10.08;88.92
50774;BME280;36745;48.544;8.918;2023-04-01T12:52:09;96171.34;;;10.09;91.33
50774;BME280;36745;48.544;8.918;2023-04-01T12:55:45;96172.22;;;10.24;89.87
50774;BME280;36745;48.544;8.918;2023-04-01T13:03:21;96172.81;;;10.61;89.27
50774;BME280;36745;48.544;8.918;2023-04-01T13:14:50;96169.03;;;10.49;86.37
50774;BME280;36745;48.544;8.918;2023-04-01T13:25:47;96183.06;;;10.61;88.73
50774;BME280;36745;48.544;8.918;2023-04-01T13:29:38;96181.84;;;10.62;87.81
50774;BME280;36745;48.544;8.918;2023-04-01T13:44:14;96183.13;;;10.51;87.94
50774;BME280;36745;48.544;8.918;2023-04-01T14:27:04;96192.19;;;10.43;86.39
50774;BME280;36745;48.544;8.918;2023-04-01T14:42:09;96200.81;;;10.60;86.50
50774;BME280;36745;48.544;8.918;2023-04-01T14:45:50;96193.78;;;10.59;86.25
50774;BME280;36745;48.544;8.918;2023-04-01T14:49:22;96195.06;;;10.48;85.26
50774;BME280;36745;48.544;8.918;2023-04-01T15:00:17;96200.06;;;10.59;84.61
50774;BME280;36745;48.544;8.918;2023-04-01T15:07:33;96199.22;;;10.44;84.32
50774;BME280;36745;48.544;8.918;2023-04-01T15:11:01;96197.78;;;10.58;84.66
50774;BME280;36745;48.544;8.918;2023-04-01T15:18:42;96207.22;;;10.33;84.14
50774;BME280;36745;48.544;8.918;2023-04-01T15:22:42;96213.50;;;10.33;84.64
50774;BME280;36745;48.544;8.918;2023-04-01T15:33:26;96224.47;;;10.42;86.03
50774;BME280;36745;48.544;8.918;2023-04-01T15:40:22;96229.41;;;10.38;85.20
50774;BME280;36745;48.544;8.918;2023-04-01T15:43:44;96230.94;;;10.39;85.19
50774;BME280;36745;48.544;8.918;2023-04-01T16:10:19;96238.69;;;10.50;83.96
50774;BME280;36745;48.544;8.918;2023-04-01T16:25:40;96239.19;;;10.39;83.15
50774;BME280;36745;48.544;8.918;2023-04-01T16:36:48;96243.81;;;10.33;82.61
50774;BME280;36745;48.544;8.918;2023-04-01T16:40:24;96248.41;;;10.36;82.15
50774;BME280;36745;48.544;8.918;2023-04-01T16:43:53;96249.31;;;10.33;81.54
50774;BME280;36745;48.544;8.918;2023-04-01T16:47:19;96246.25;;;10.31;81.55
50774;BME280;36745;48.544;8.918;2023-04-01T16:50:53;96245.81;;;10.24;81.55
50774;BME280;36745;48.544;8.918;2023-04-01T16:57:56;96242.59;;;10.34;82.37
50774;BME280;36745;48.544;8.918;2023-04-01T17:01:21;96244.56;;;10.34;82.10
50774;BME280;36745;48.544;8.918;2023-04-01T17:04:48;96247.16;;;10.37;82.04
50774;BME280;36745;48.544;8.918;2023-04-01T17:11:45;96247.78;;;10.32;81.92
50774;BME280;36745;48.544;8.918;2023-04-01T17:15:27;96252.69;;;10.28;81.62
50774;BME280;36745;48.544;8.918;2023-04-01T17:22:55;96253.31;;;10.23;82.22
50774;BME280;36745;48.544;8.918;2023-04-01T17:26:37;96253.28;;;10.32;82.10
50774;BME280;36745;48.544;8.918;2023-04-01T17:49:19;96277.81;;;10.12;81.38
50774;BME280;36745;48.544;8.918;2023-04-01T17:52:38;96296.75;;;10.10;81.41
50774;BME280;36745;48.544;8.918;2023-04-01T17:56:18;96291.59;;;10.03;81.44
50774;BME280;36745;48.544;8.918;2023-04-01T18:04:02;96291.88;;;10.05;81.69
50774;BME280;36745;48.544;8.918;2023-04-01T18:07:40;96307.34;;;10.02;81.17
50774;BME280;36745;48.544;8.918;2023-04-01T18:14:49;96314.69;;;9.96;82.02
50774;BME280;36745;48.544;8.918;2023-04-01T18:26:11;96363.63;;;9.83;84.69
50774;BME280;36745;48.544;8.918;2023-04-01T18:33:18;96387.28;;;9.44;84.67
50774;BME280;36745;48.544;8.918;2023-04-01T18:36:46;96387.13;;;9.39;85.01
50774;BME280;36745;48.544;8.918;2023-04-01T18:40:34;96381.41;;;9.24;84.64
50774;BME280;36745;48.544;8.918;2023-04-01T18:47:43;96384.16;;;9.15;86.48
50774;BME280;36745;48.544;8.918;2023-04-01T18:51:45;96393.16;;;9.15;86.46
50774;BME280;36745;48.544;8.918;2023-04-01T18:58:42;96395.81;;;8.97;87.62
50774;BME280;36745;48.544;8.918;2023-04-01T19:02:29;96394.88;;;8.91;87.78
50774;BME280;36745;48.544;8.918;2023-04-01T19:05:52;96392.84;;;8.73;88.54
50774;BME280;36745;48.544;8.918;2023-04-01T19:09:19;96394.88;;;8.60;89.44
50774;BME280;36745;48.544;8.918;2023-04-01T19:20:14;96394.31;;;8.22;91.43
50774;BME280;36745;48.544;8.918;2023-04-01T19:52:40;96383.03;;;7.51;94.45
50774;BME280;36745;48.544;8.918;2023-04-01T19:56:17;96402.69;;;7.49;94.85
50774;BME280;36745;48.544;8.918;2023-04-01T19:59:44;96402.59;;;7.40;95.53
50774;BME280;36745;48.544;8.918;2023-04-01T20:10:15;96421.94;;;7.11;95.38
50774;BME280;36745;48.544;8.918;2023-04-01T20:20:59;96413.28;;;7.00;96.72
50774;BME280;36745;48.544;8.918;2023-04-01T20:24:31;96423.47;;;7.00;97.17
50774;BME280;36745;48.544;8.918;2023-04-01T20:35:06;96440.88;;;6.93;97.40
50774;BME280;36745;48.544;8.918;2023-04-01T20:42:34;96448.44;;;6.89;96.55
50774;BME280;36745;48.544;8.918;2023-04-01T20:46:16;96452.59;;;6.81;97.83
50774;BME280;36745;48.544;8.918;2023-04-01T20:53:28;96471.03;;;6.93;98.01
50774;BME280;36745;48.544;8.918;2023-04-01T20:57:06;96488.78;;;7.01;97.91
50774;BME280;36745;48.544;8.918;2023-04-01T21:08:45;96493.94;;;6.99;98.31
50774;BME280;36745;48.544;8.918;2023-04-01T21:15:39;96509.19;;;7.13;97.89
50774;BME280;36745;48.544;8.918;2023-04-01T21:19:31;96487.78;;;7.08;98.12
50774;BME280;36745;48.544;8.918;2023-04-01T21:23:05;96489.78;;;7.20;99.38
50774;BME280;36745;48.544;8.918;2023-04-01T21:34:25;96502.19;;;7.37;99.56
50774;BME280;36745;48.544;8.918;2023-04-01T21:41:14;96504.03;;;7.40;100.00
50774;BME280;36745;48.544;8.918;2023-04-01T21:45:21;96505.59;;;7.54;100.00
50774;BME280;36745;48.544;8.918;2023-04-01T22:25:03;96530.69;;;7.52;99.10
50774;BME280;36745;48.544;8.918;2023-04-01T22:28:42;96534.97;;;7.53;99.17
50774;BME280;36745;48.544;8.918;2023-04-01T22:32:25;96545.38;;;7.46;99.44
50774;BME280;36745;48.544;8.918;2023-04-01T22:39:52;96547.38;;;7.33;99.38
50774;BME280;36745;48.544;8.918;2023-04-01T22:43:31;96540.34;;;7.32;99.39
50774;BME280;36745;48.544;8.918;2023-04-01T22:54:39;96542.22;;;7.22;99.94
50774;BME280;36745;48.544;8.918;2023-04-01T22:58:30;96537.69;;;7.15;99.66
50774;BME280;36745;48.544;8.918;2023-04-01T23:02:07;96538.34;;;7.20;99.39
50774;BME280;36745;48.544;8.918;2023-04-01T23:05:28;96539.25;;;7.16;99.75
50774;BME280;36745;48.544;8.918;2023-04-01T23:09:08;96539.00;;;7.11;99.66
50774;BME280;36745;48.544;8.918;2023-04-01T23:12:32;96548.00;;;7.11;99.60
50774;BME280;36745;48.544;8.918;2023-04-01T23:15:53;96545.56;;;7.13;99.56
50774;BME280;36745;48.544;8.918;2023-04-01T23:19:23;96556.84;;;7.03;100.00
50774;BME280;36745;48.544;8.918;2023-04-01T23:23:11;96553.56;;;7.08;100.00
50774;BME280;36745;48.544;8.918;2023-04-01T23:26:56;96557.41;;;7.10;100.00
50774;BME280;36745;48.544;8.918;2023-04-01T23:34:21;96569.53;;;6.97;99.23
50774;BME280;36745;48.544;8.918;2023-04-01T23:37:42;96579.72;;;6.84;99.18
50774;BME280;36745;48.544;8.918;2023-04-01T23:41:02;96584.19;;;6.78;99.72
50774;BME280;36745;48.544;8.918;2023-04-01T23:44:25;96580.53;;;6.68;99.86
50774;BME280;36745;48.544;8.918;2023-04-01T23:47:50;96583.81;;;6.63;100.00
50774;BME280;36745;48.544;8.918;2023-04-01T23:51:37;96591.19;;;6.50;100.00
50774;BME280;36745;48.544;8.918;2023-04-01T23:55:01;96595.09;;;6.49;100.00
50774;BME280;36745;48.544;8.918;2023-04-01T23:58:44;96597.03;;;6.36;100.00
